Time;durP1;ratioP1;P1;durP2;ratioP2;P2;SDS_P1;SDS_P2;PMS_P1;PMS_P2;Temp;Humidity;BMP_temperature;BMP_pressure;BME280_temperature;BME280_humidity;BME280_pressure;Samples;Min_cycle;Max_cycle;Signal;HPM_P1;HPM_P2
2023/03/15 00:02:30;;;;;;;2.85;0.60;;;;;;;;;;5001931;28;20041;-87
2023/03/15 00:05:11;;;;;;;0.68;0.50;;;;;;;;;;5016225;28;20068;-88
2023/03/15 00:08:07;;;;;;;2.90;0.90;;;;;;;;;;5031422;28;20040;-87
2023/03/15 00:11:00;;;;;;;1.50;0.80;;;;;;;;;;5023001;28;20045;-88
2023/03/15 00:13:30;;;;;;;2.30;0.70;;;;;;;;;;5035581;28;20029;-88
2023/03/15 00:16:10;;;;;;;1.95;0.70;;;;;;;;;;5002498;28;20029;-87
2023/03/15 00:18:46;;;;;;;3.78;1.23;;;;;;;;;;5000685;28;20045;-88
2023/03/15 00:21:42;;;;;;;2.40;0.68;;;;;;;;;;5018839;28;20585;-87
2023/03/15 00:24:26;;;;;;;2.20;0.82;;;;;;;;;;5017936;28;20038;-88
2023/03/15 00:27:04;;;;;;;5.47;0.88;;;;;;;;;;5036070;28;20033;-87
2023/03/15 00:29:47;;;;;;;3.22;0.88;;;;;;;;;;5014958;28;20061;-88
2023/03/15 00:32:24;;;;;;;3.03;0.73;;;;;;;;;;5018980;28;20091;-87
2023/03/15 00:35:10;;;;;;;2.45;0.85;;;;;;;;;;5019003;28;20426;-88
2023/03/15 00:37:45;;;;;;;1.80;0.70;;;;;;;;;;5014643;28;20148;-86
2023/03/15 00:40:20;;;;;;;2.78;1.20;;;;;;;;;;5015764;28;20099;-88
2023/03/15 00:42:53;;;;;;;2.55;0.90;;;;;;;;;;5000898;28;20484;-87
2023/03/15 00:45:46;;;;;;;2.95;0.80;;;;;;;;;;5033535;28;20037;-85
2023/03/15 00:48:26;;;;;;;1.38;0.70;;;;;;;;;;5032292;28;20040;-83
2023/03/15 00:51:14;;;;;;;3.00;0.68;;;;;;;;;;5001985;28;20060;-87
2023/03/15 00:53:52;;;;;;;1.85;0.82;;;;;;;;;;5033671;28;20025;-88
2023/03/15 00:56:28;;;;;;;3.20;1.02;;;;;;;;;;5015505;28;20052;-87
2023/03/15 00:59:30;;;;;;;;;;;;;;;;;;;;;
2023/03/15 01:04:45;;;;;;;1.85;0.60;;;;;;;;;;4990424;28;20042;-87
2023/03/15 01:07:46;;;;;;;2.45;0.80;;;;;;;;;;4993174;28;20384;-87
2023/03/15 01:10:47;;;;;;;4.13;0.80;;;;;;;;;;4994318;28;20045;-89
2023/03/15 01:13:24;;;;;;;1.75;0.82;;;;;;;;;;4994176;28;20049;-87
2023/03/15 01:15:53;;;;;;;2.00;0.75;;;;;;;;;;4992585;28;20061;-89
2023/03/15 01:18:51;;;;;;;3.65;0.80;;;;;;;;;;4993695;28;20034;-87
2023/03/15 01:21:24;;;;;;;1.58;0.70;;;;;;;;;;4992290;28;20038;-88
2023/03/15 01:24:24;;;;;;;2.22;0.65;;;;;;;;;;4993785;28;20046;-87
2023/03/15 01:30:09;;;;;;;2.45;0.68;;;;;;;;;;4993872;28;20108;-90
2023/03/15 01:32:44;;;;;;;2.47;0.55;;;;;;;;;;4992827;28;20044;-87
2023/03/15 01:35:33;;;;;;;1.63;0.60;;;;;;;;;;4960349;28;20092;-87
2023/03/15 01:38:11;;;;;;;2.05;0.77;;;;;;;;;;4993485;28;20029;-85
2023/03/15 01:40:44;;;;;;;2.17;0.95;;;;;;;;;;4976767;28;20042;-89
2023/03/15 01:43:45;;;;;;;3.45;0.73;;;;;;;;;;4993594;28;20402;-87
2023/03/15 01:46:36;;;;;;;2.95;0.70;;;;;;;;;;4991870;28;20042;-86
2023/03/15 01:49:42;;;;;;;1.98;0.70;;;;;;;;;;4998070;28;20065;-83
2023/03/15 01:52:17;;;;;;;0.93;0.60;;;;;;;;;;4977133;28;20476;-87
2023/03/15 01:55:31;;;;;;;2.70;0.88;;;;;;;;;;4979396;28;20046;-87
2023/03/15 01:58:21;;;;;;;1.70;0.60;;;;;;;;;;4975879;28;20037;-87
2023/03/15 02:00:53;;;;;;;2.38;0.60;;;;;;;;;;4975461;28;20403;-88
2023/03/15 02:04:11;;;;;;;2.63;0.80;;;;;;;;;;4987397;28;20062;-89
2023/03/15 02:06:58;;;;;;;1.58;0.70;;;;;;;;;;4992025;28;20053;-87
2023/03/15 02:10:11;;;;;;;2.67;0.75;;;;;;;;;;4991917;28;20447;-87
2023/03/15 02:13:21;;;;;;;4.55;1.02;;;;;;;;;;4964660;28;20042;-87
2023/03/15 02:16:05;;;;;;;2.03;0.68;;;;;;;;;;4991986;28;20125;-89
2023/03/15 02:19:10;;;;;;;2.33;0.60;;;;;;;;;;4962670;28;20038;-86
2023/03/15 02:21:54;;;;;;;2.90;0.82;;;;;;;;;;4993591;28;20034;-87
2023/03/15 02:24:44;;;;;;;1.30;0.73;;;;;;;;;;4991844;28;20026;-87
2023/03/15 02:27:24;;;;;;;1.17;0.60;;;;;;;;;;4960287;28;20038;-87
2023/03/15 02:32:50;;;;;;;0.65;0.32;;;;;;;;;;4988200;28;20042;-87
2023/03/15 02:35:29;;;;;;;0.20;0.20;;;;;;;;;;4976101;28;20045;-87
2023/03/15 02:38:21;;;;;;;;;;;;;;;;;;4992970;28;20065;-84
2023/03/15 02:42:03;;;;;;;2.80;0.43;;;;;;;;;;4980821;28;19917;-87
2023/03/15 02:44:53;;;;;;;0.30;0.30;;;;;;;;;;4958795;28;20073;-89
2023/03/15 02:47:38;;;;;;;0.30;0.30;;;;;;;;;;4974953;28;20053;-86
2023/03/15 02:50:12;;;;;;;1.25;0.52;;;;;;;;;;4974089;28;20046;-87
2023/03/15 02:53:14;;;;;;;1.95;0.57;;;;;;;;;;4985317;28;20066;-88
2023/03/15 02:55:47;;;;;;;3.08;0.40;;;;;;;;;;4974703;28;20086;-89
2023/03/15 02:58:44;;;;;;;0.40;0.40;;;;;;;;;;4974977;28;20039;-89
2023/03/15 03:01:22;;;;;;;0.50;0.50;;;;;;;;;;4977084;28;20065;-87
2023/03/15 03:03:55;;;;;;;1.48;0.52;;;;;;;;;;4978906;28;20042;-84
2023/03/15 03:06:42;;;;;;;;;;;;;;;;;;;;;
2023/03/15 03:09:53;;;;;;;0.20;0.20;;;;;;;;;;4995059;28;20038;-88
2023/03/15 03:13:09;;;;;;;1.30;0.40;;;;;;;;;;4969579;28;20046;-86
2023/03/15 03:15:44;;;;;;;1.75;0.40;;;;;;;;;;4979755;28;20044;-87
2023/03/15 03:18:40;;;;;;;0.32;0.32;;;;;;;;;;5005157;28;20038;-88
2023/03/15 03:21:16;;;;;;;0.45;0.43;;;;;;;;;;4994004;28;20042;-85
2023/03/15 03:23:53;;;;;;;1.40;0.60;;;;;;;;;;4979030;28;20138;-86
2023/03/15 03:26:45;;;;;;;0.82;0.55;;;;;;;;;;4994997;28;20034;-87
2023/03/15 03:29:18;;;;;;;0.73;0.70;;;;;;;;;;4973005;28;20046;-86
2023/03/15 03:32:00;;;;;;;0.70;0.70;;;;;;;;;;4963059;28;20518;-87
2023/03/15 03:34:25;;;;;;;0.60;0.60;;;;;;;;;;5029806;23;20065;-83
2023/03/15 03:36:51;;;;;;;0.85;0.60;;;;;;;;;;5039524;28;20478;-83
2023/03/15 03:39:26;;;;;;;1.27;1.02;;;;;;;;;;5022152;28;20465;-83
2023/03/15 03:41:52;;;;;;;2.70;0.75;;;;;;;;;;5038746;28;20064;-84
2023/03/15 03:44:17;;;;;;;1.08;0.70;;;;;;;;;;5038219;28;20489;-83
2023/03/15 03:46:44;;;;;;;0.82;0.80;;;;;;;;;;5021428;28;20401;-83
2023/03/15 03:49:11;;;;;;;1.10;0.90;;;;;;;;;;5021955;28;20052;-84
2023/03/15 03:51:37;;;;;;;0.60;0.60;;;;;;;;;;5021781;28;20038;-84
2023/03/15 03:54:03;;;;;;;0.82;0.60;;;;;;;;;;5020527;28;20037;-83
2023/03/15 03:56:29;;;;;;;0.40;0.40;;;;;;;;;;5020912;28;20061;-83
2023/03/15 03:58:55;;;;;;;0.40;0.40;;;;;;;;;;5021517;28;20040;-83
2023/03/15 04:01:27;;;;;;;0.50;0.50;;;;;;;;;;5006109;28;20042;-84
2023/03/15 04:03:54;;;;;;;0.30;0.30;;;;;;;;;;5021270;28;20283;-84
2023/03/15 04:06:22;;;;;;;0.35;0.35;;;;;;;;;;5021470;28;20078;-84
2023/03/15 04:08:47;;;;;;;0.82;0.45;;;;;;;;;;5021181;28;20072;-83
2023/03/15 04:11:19;;;;;;;0.75;0.50;;;;;;;;;;5020604;28;20044;-82
2023/03/15 04:13:52;;;;;;;0.50;0.40;;;;;;;;;;5020951;28;20040;-82
2023/03/15 04:16:19;;;;;;;0.50;0.50;;;;;;;;;;5020825;28;20057;-83
2023/03/15 04:19:07;;;;;;;0.43;0.40;;;;;;;;;;5007367;28;20440;-83
2023/03/15 04:21:34;;;;;;;0.47;0.45;;;;;;;;;;5020640;28;20053;-83
2023/03/15 04:24:15;;;;;;;0.50;0.40;;;;;;;;;;5020075;28;20071;-83
2023/03/15 04:27:19;;;;;;;0.52;0.50;;;;;;;;;;4976701;28;20042;-84
2023/03/15 04:30:04;;;;;;;0.85;0.60;;;;;;;;;;4977160;28;20049;-83
2023/03/15 04:33:02;;;;;;;1.55;0.57;;;;;;;;;;5022477;28;20037;-83
2023/03/15 04:35:57;;;;;;;0.70;0.65;;;;;;;;;;5025352;28;20089;-84
2023/03/15 04:38:35;;;;;;;1.33;0.70;;;;;;;;;;5020713;28;20037;-84
2023/03/15 04:41:19;;;;;;;1.65;0.90;;;;;;;;;;5038196;28;20080;-83
2023/03/15 04:44:25;;;;;;;2.78;1.00;;;;;;;;;;5019397;28;20037;-82
2023/03/15 04:47:03;;;;;;;1.38;0.80;;;;;;;;;;5019748;28;20049;-83
2023/03/15 04:49:37;;;;;;;2.10;1.00;;;;;;;;;;5020071;28;20037;-83
2023/03/15 04:52:23;;;;;;;1.23;1.02;;;;;;;;;;5022333;28;20493;-83
2023/03/15 04:55:08;;;;;;;1.75;0.80;;;;;;;;;;5022536;28;20075;-83
2023/03/15 04:57:59;;;;;;;0.93;0.80;;;;;;;;;;5014816;28;20037;-84
2023/03/15 05:00:28;;;;;;;0.95;0.80;;;;;;;;;;5037320;28;20383;-83
2023/03/15 05:03:16;;;;;;;1.90;1.00;;;;;;;;;;4995656;28;20061;-83
2023/03/15 05:06:08;;;;;;;1.65;1.08;;;;;;;;;;5007823;28;20034;-83
2023/03/15 05:09:03;;;;;;;5.50;1.00;;;;;;;;;;4966341;28;20122;-84
2023/03/15 05:11:47;;;;;;;5.38;0.98;;;;;;;;;;5036944;28;20505;-83
2023/03/15 05:14:28;;;;;;;3.40;1.00;;;;;;;;;;5019782;28;20043;-82
2023/03/15 05:17:01;;;;;;;3.63;1.17;;;;;;;;;;5037097;28;20045;-83
2023/03/15 05:19:50;;;;;;;1.98;1.00;;;;;;;;;;5019321;28;20417;-82
2023/03/15 05:22:48;;;;;;;2.40;1.10;;;;;;;;;;4992146;28;20117;-83
2023/03/15 05:25:35;;;;;;;1.98;1.00;;;;;;;;;;5006210;28;20498;-83
2023/03/15 05:28:18;;;;;;;2.17;1.05;;;;;;;;;;5005254;28;20033;-82
2023/03/15 05:30:57;;;;;;;2.22;1.20;;;;;;;;;;5037032;28;20095;-82
2023/03/15 05:33:46;;;;;;;1.63;1.10;;;;;;;;;;5025877;28;20420;-83
2023/03/15 05:36:31;;;;;;;3.75;1.55;;;;;;;;;;5019213;28;20045;-83
2023/03/15 05:39:16;;;;;;;2.78;1.20;;;;;;;;;;5037126;28;20095;-83
2023/03/15 05:42:01;;;;;;;4.43;1.38;;;;;;;;;;5036923;28;20030;-83
2023/03/15 05:44:47;;;;;;;5.45;1.40;;;;;;;;;;5036253;28;20517;-82
2023/03/15 05:47:19;;;;;;;2.65;1.42;;;;;;;;;;5037110;28;20057;-83
2023/03/15 05:49:58;;;;;;;3.75;1.50;;;;;;;;;;5036512;28;20033;-83
2023/03/15 05:52:42;;;;;;;6.82;1.70;;;;;;;;;;5036934;28;20091;-83
2023/03/15 05:55:16;;;;;;;3.80;1.80;;;;;;;;;;5018819;28;20146;-83
2023/03/15 05:58:02;;;;;;;2.60;1.60;;;;;;;;;;5008579;28;20095;-82
2023/03/15 06:00:42;;;;;;;3.20;1.55;;;;;;;;;;5005222;28;20034;-83
2023/03/15 06:03:17;;;;;;;2.65;1.60;;;;;;;;;;5018739;28;20030;-82
2023/03/15 06:05:59;;;;;;;3.20;1.30;;;;;;;;;;5018541;28;20501;-81
2023/03/15 06:08:33;;;;;;;3.22;1.65;;;;;;;;;;5005029;28;20033;-83
2023/03/15 06:10:59;;;;;;;2.35;1.40;;;;;;;;;;5020761;28;20033;-82
2023/03/15 06:13:25;;;;;;;2.65;1.30;;;;;;;;;;5037980;28;20041;-83
2023/03/15 06:15:50;;;;;;;2.38;1.33;;;;;;;;;;5037141;28;20034;-83
2023/03/15 06:18:17;;;;;;;3.30;1.33;;;;;;;;;;5019727;28;20029;-83
2023/03/15 06:20:45;;;;;;;2.78;1.27;;;;;;;;;;5019690;28;20083;-83
2023/03/15 06:23:13;;;;;;;2.45;1.40;;;;;;;;;;5018708;28;20033;-83
2023/03/15 06:25:44;;;;;;;3.20;1.27;;;;;;;;;;5018759;28;20064;-82
2023/03/15 06:28:10;;;;;;;2.72;1.40;;;;;;;;;;5019636;28;20044;-83
2023/03/15 06:30:40;;;;;;;2.97;1.40;;;;;;;;;;5019368;28;20038;-81
2023/03/15 06:33:06;;;;;;;5.13;1.58;;;;;;;;;;5018705;28;20029;-83
2023/03/15 06:35:31;;;;;;;3.60;1.77;;;;;;;;;;5018422;28;20045;-82
2023/03/15 06:37:57;;;;;;;2.13;1.50;;;;;;;;;;5018694;28;20049;-83
2023/03/15 06:40:23;;;;;;;5.93;1.70;;;;;;;;;;5018716;28;20124;-83
2023/03/15 06:42:49;;;;;;;4.35;1.60;;;;;;;;;;5019418;28;20588;-83
2023/03/15 06:45:16;;;;;;;6.15;2.00;;;;;;;;;;5018172;28;20033;-82
2023/03/15 06:47:44;;;;;;;4.45;1.85;;;;;;;;;;5016266;28;20040;-82
2023/03/15 06:50:10;;;;;;;4.47;1.85;;;;;;;;;;5015871;28;20029;-83
2023/03/15 06:52:35;;;;;;;5.90;2.30;;;;;;;;;;5018405;28;20453;-83
2023/03/15 06:55:01;;;;;;;4.10;1.77;;;;;;;;;;5018663;28;20053;-82
2023/03/15 06:57:27;;;;;;;4.43;1.70;;;;;;;;;;5019082;28;20421;-83
2023/03/15 06:59:53;;;;;;;4.45;1.83;;;;;;;;;;5037056;28;20551;-84
2023/03/15 07:02:18;;;;;;;3.90;1.80;;;;;;;;;;5035994;28;20031;-82
2023/03/15 07:04:44;;;;;;;4.07;1.70;;;;;;;;;;5019080;28;20413;-83
2023/03/15 07:07:10;;;;;;;3.78;1.77;;;;;;;;;;5036325;28;20111;-82
2023/03/15 07:09:36;;;;;;;4.85;2.00;;;;;;;;;;5036513;28;20056;-83
2023/03/15 07:12:02;;;;;;;3.17;1.80;;;;;;;;;;5019582;28;20029;-83
2023/03/15 07:14:27;;;;;;;2.47;1.50;;;;;;;;;;5019437;28;20036;-84
2023/03/15 07:16:53;;;;;;;3.22;1.60;;;;;;;;;;5017729;28;20040;-83
2023/03/15 07:19:18;;;;;;;2.33;1.60;;;;;;;;;;5036276;28;20033;-83
2023/03/15 07:21:44;;;;;;;4.18;1.80;;;;;;;;;;5035098;28;20038;-84
2023/03/15 07:24:09;;;;;;;4.47;2.10;;;;;;;;;;5034986;28;20100;-83
2023/03/15 07:26:35;;;;;;;5.88;2.00;;;;;;;;;;5016785;28;20034;-83
2023/03/15 07:29:00;;;;;;;3.72;1.77;;;;;;;;;;5038546;28;20037;-83
2023/03/15 07:31:26;;;;;;;5.10;1.95;;;;;;;;;;5039177;28;20056;-83
2023/03/15 07:33:51;;;;;;;3.38;1.90;;;;;;;;;;5040980;28;20404;-82
2023/03/15 07:36:17;;;;;;;4.53;1.80;;;;;;;;;;5021518;28;20068;-85
2023/03/15 07:38:42;;;;;;;3.95;1.90;;;;;;;;;;5021228;28;20037;-83
2023/03/15 07:41:08;;;;;;;4.90;1.80;;;;;;;;;;5039185;28;20497;-81
2023/03/15 07:43:36;;;;;;;5.32;2.00;;;;;;;;;;5003972;28;20034;-81
2023/03/15 07:46:13;;;;;;;4.63;2.13;;;;;;;;;;5020644;28;20038;-82
2023/03/15 07:48:39;;;;;;;4.72;1.90;;;;;;;;;;5019843;28;20033;-82
2023/03/15 07:51:05;;;;;;;5.45;2.08;;;;;;;;;;5038266;28;20032;-85
2023/03/15 07:53:31;;;;;;;7.60;2.38;;;;;;;;;;5020573;28;20030;-85
2023/03/15 07:55:56;;;;;;;6.13;2.30;;;;;;;;;;5038000;28;20468;-83
2023/03/15 07:58:22;;;;;;;6.10;2.00;;;;;;;;;;5039289;28;20037;-82
2023/03/15 08:00:47;;;;;;;5.05;2.00;;;;;;;;;;5038437;28;20482;-83
2023/03/15 08:03:13;;;;;;;8.18;2.10;;;;;;;;;;5036046;28;20405;-82
2023/03/15 08:05:38;;;;;;;8.00;2.30;;;;;;;;;;5018128;28;20033;-82
2023/03/15 08:08:04;;;;;;;8.75;2.50;;;;;;;;;;5017935;28;20106;-82
2023/03/15 08:10:30;;;;;;;9.07;2.17;;;;;;;;;;5036602;28;20120;-83
2023/03/15 08:12:55;;;;;;;8.23;2.70;;;;;;;;;;5018752;28;20522;-83
2023/03/15 08:15:21;;;;;;;8.68;2.63;;;;;;;;;;5018336;28;20037;-83
2023/03/15 08:17:47;;;;;;;5.03;2.17;;;;;;;;;;5036060;28;20033;-84
2023/03/15 08:20:16;;;;;;;6.85;2.30;;;;;;;;;;5035503;28;20037;-82
2023/03/15 08:22:43;;;;;;;7.60;2.42;;;;;;;;;;5036294;28;20034;-81
2023/03/15 08:25:10;;;;;;;7.15;2.75;;;;;;;;;;5035500;28;20036;-82
2023/03/15 08:27:36;;;;;;;4.18;2.13;;;;;;;;;;5036960;28;20048;-82
2023/03/15 08:30:04;;;;;;;7.38;2.80;;;;;;;;;;5036899;28;20034;-83
2023/03/15 08:32:30;;;;;;;5.40;2.30;;;;;;;;;;5018178;28;20043;-83
2023/03/15 08:34:56;;;;;;;6.20;2.40;;;;;;;;;;5018173;28;20120;-82
2023/03/15 08:37:21;;;;;;;4.90;2.60;;;;;;;;;;5036676;28;20505;-83
2023/03/15 08:39:47;;;;;;;5.35;2.20;;;;;;;;;;5035150;28;20112;-87
2023/03/15 08:42:12;;;;;;;6.00;2.22;;;;;;;;;;5036074;28;20064;-82
2023/03/15 08:44:38;;;;;;;4.15;2.40;;;;;;;;;;5035579;28;20100;-83
2023/03/15 08:47:04;;;;;;;4.25;2.10;;;;;;;;;;5036068;28;20037;-84
2023/03/15 08:49:30;;;;;;;5.13;2.38;;;;;;;;;;5035949;28;20039;-84
2023/03/15 08:51:55;;;;;;;5.32;2.45;;;;;;;;;;5035326;28;20038;-83
2023/03/15 08:54:22;;;;;;;6.20;2.40;;;;;;;;;;5035534;28;20555;-83
2023/03/15 08:56:48;;;;;;;6.93;2.38;;;;;;;;;;5035417;28;20053;-83
2023/03/15 08:59:14;;;;;;;7.38;2.47;;;;;;;;;;5018061;28;20444;-82
2023/03/15 09:01:40;;;;;;;5.50;2.30;;;;;;;;;;5035791;28;20035;-82
2023/03/15 09:04:05;;;;;;;7.53;2.42;;;;;;;;;;5035091;28;20153;-83
2023/03/15 09:06:31;;;;;;;4.13;2.30;;;;;;;;;;5017289;28;20029;-82
2023/03/15 09:08:57;;;;;;;5.13;2.20;;;;;;;;;;5034949;28;20476;-81
2023/03/15 09:11:22;;;;;;;4.20;2.20;;;;;;;;;;5017804;28;20091;-82
2023/03/15 09:13:47;;;;;;;4.28;2.10;;;;;;;;;;5018290;28;20037;-82
2023/03/15 09:16:13;;;;;;;3.58;2.10;;;;;;;;;;5035427;28;20037;-82
2023/03/15 09:18:40;;;;;;;8.15;2.35;;;;;;;;;;5035312;28;20085;-82
2023/03/15 09:21:06;;;;;;;2.92;2.00;;;;;;;;;;5017156;28;20040;-82
2023/03/15 09:23:31;;;;;;;7.18;2.03;;;;;;;;;;5035294;28;20041;-83
2023/03/15 09:25:57;;;;;;;5.22;1.90;;;;;;;;;;5000356;28;20408;-82
2023/03/15 09:28:24;;;;;;;5.68;2.20;;;;;;;;;;5035237;28;20048;-83
2023/03/15 09:30:50;;;;;;;8.30;2.20;;;;;;;;;;5017018;28;20049;-82
2023/03/15 09:33:16;;;;;;;3.50;2.05;;;;;;;;;;5035077;28;20034;-82
2023/03/15 09:35:41;;;;;;;3.42;1.88;;;;;;;;;;5018328;28;20481;-83
2023/03/15 09:38:07;;;;;;;4.07;1.83;;;;;;;;;;5018450;28;20040;-84
2023/03/15 09:40:38;;;;;;;5.50;1.70;;;;;;;;;;5034960;28;20033;-83
2023/03/15 09:43:06;;;;;;;3.25;1.55;;;;;;;;;;5034154;28;20037;-84
2023/03/15 09:45:44;;;;;;;5.00;1.98;;;;;;;;;;5034120;28;20048;-82
2023/03/15 09:48:23;;;;;;;3.95;1.90;;;;;;;;;;5033748;28;20235;-82
2023/03/15 09:51:11;;;;;;;4.57;1.88;;;;;;;;;;5033585;28;20060;-83
2023/03/15 09:53:49;;;;;;;4.97;2.00;;;;;;;;;;5034548;28;20116;-84
2023/03/15 09:56:35;;;;;;;4.07;2.15;;;;;;;;;;5031930;23;21457;-90
2023/03/15 09:59:02;;;;;;;5.03;2.30;;;;;;;;;;5073129;28;20052;-84
2023/03/15 10:01:35;;;;;;;5.18;2.20;;;;;;;;;;5038639;28;20624;-86
2023/03/15 10:04:41;;;;;;;4.38;2.45;;;;;;;;;;5072770;28;20044;-87
2023/03/15 10:07:13;;;;;;;5.93;2.42;;;;;;;;;;5050764;28;20048;-88
2023/03/15 10:09:39;;;;;;;4.60;1.90;;;;;;;;;;5072202;28;20381;-88
2023/03/15 10:12:09;;;;;;;3.45;2.00;;;;;;;;;;5072752;28;20503;-86
2023/03/15 10:14:56;;;;;;;6.10;2.20;;;;;;;;;;5059386;28;20040;-85
2023/03/15 10:17:58;;;;;;;4.82;2.47;;;;;;;;;;5073446;28;20428;-88
2023/03/15 10:20:34;;;;;;;5.40;2.47;;;;;;;;;;5054551;28;20036;-88
2023/03/15 10:23:29;;;;;;;4.88;2.30;;;;;;;;;;5072729;28;20115;-88
2023/03/15 10:25:56;;;;;;;4.25;2.40;;;;;;;;;;5050236;28;20584;-88
2023/03/15 10:28:21;;;;;;;3.95;2.38;;;;;;;;;;5068269;28;20029;-89
2023/03/15 10:30:49;;;;;;;5.75;2.53;;;;;;;;;;5058959;28;20029;-86
2023/03/15 10:33:27;;;;;;;2.90;2.10;;;;;;;;;;5033594;28;20183;-88
2023/03/15 10:35:53;;;;;;;4.75;2.33;;;;;;;;;;5068838;28;20040;-89
2023/03/15 10:38:21;;;;;;;6.32;2.40;;;;;;;;;;5072599;28;20114;-87
2023/03/15 10:40:50;;;;;;;6.03;2.55;;;;;;;;;;5052962;28;20053;-89
2023/03/15 10:43:20;;;;;;;5.55;2.50;;;;;;;;;;5067669;28;20393;-89
2023/03/15 10:46:02;;;;;;;3.72;2.53;;;;;;;;;;5056204;28;20035;-86
2023/03/15 10:48:33;;;;;;;5.07;2.40;;;;;;;;;;5073303;28;20126;-88
2023/03/15 10:51:14;;;;;;;5.78;2.50;;;;;;;;;;5054254;28;20043;-88
2023/03/15 10:53:57;;;;;;;5.70;2.53;;;;;;;;;;5070128;28;20037;-88
2023/03/15 10:56:25;;;;;;;4.35;2.03;;;;;;;;;;5053907;28;20033;-88
2023/03/15 10:58:55;;;;;;;3.05;1.92;;;;;;;;;;5071377;28;20472;-88
2023/03/15 11:01:33;;;;;;;3.58;2.38;;;;;;;;;;5070513;28;20029;-87
2023/03/15 11:04:17;;;;;;;3.28;1.88;;;;;;;;;;5074144;28;20036;-86
2023/03/15 11:06:44;;;;;;;;;;;;;;;;;;5076338;28;20548;-84
2023/03/15 11:09:21;;;;;;;4.57;2.00;;;;;;;;;;5057772;28;19912;-87
2023/03/15 11:12:04;;;;;;;3.63;2.10;;;;;;;;;;5076178;28;20029;-87
2023/03/15 11:14:36;;;;;;;;;;;;;;;;;;5041650;28;20036;-85
2023/03/15 11:17:04;;;;;;;2.83;1.60;;;;;;;;;;5076466;28;19944;-88
2023/03/15 11:19:33;;;;;;;2.92;1.60;;;;;;;;;;5087472;28;20031;-88
2023/03/15 11:22:00;;;;;;;5.25;2.10;;;;;;;;;;5077921;28;20040;-85
2023/03/15 11:24:31;;;;;;;4.85;2.00;;;;;;;;;;5041995;28;20413;-85
2023/03/15 11:27:00;;;;;;;4.95;2.10;;;;;;;;;;5076328;28;20047;-87
2023/03/15 11:29:32;;;;;;;2.75;1.70;;;;;;;;;;5076889;28;20033;-87
2023/03/15 11:32:15;;;;;;;3.13;1.70;;;;;;;;;;5057551;28;20039;-88
2023/03/15 11:34:50;;;;;;;2.38;1.50;;;;;;;;;;5074799;28;20044;-86
2023/03/15 11:37:21;;;;;;;2.67;1.40;;;;;;;;;;5040995;28;20040;-87
2023/03/15 11:39:56;;;;;;;3.97;1.65;;;;;;;;;;5075328;28;20443;-88
2023/03/15 11:42:32;;;;;;;3.55;1.48;;;;;;;;;;5074905;28;20508;-87
2023/03/15 11:45:03;;;;;;;4.40;1.77;;;;;;;;;;5074260;28;20039;-87
2023/03/15 11:47:36;;;;;;;2.40;1.50;;;;;;;;;;5074372;28;20029;-88
2023/03/15 11:50:02;;;;;;;3.22;1.65;;;;;;;;;;5074734;28;20028;-85
2023/03/15 11:52:29;;;;;;;2.80;1.67;;;;;;;;;;5057423;28;20109;-86
2023/03/15 11:55:00;;;;;;;2.83;1.80;;;;;;;;;;5077463;28;20035;-86
2023/03/15 11:57:31;;;;;;;2.67;1.90;;;;;;;;;;5075387;28;20048;-84
2023/03/15 12:00:21;;;;;;;4.80;2.08;;;;;;;;;;5085758;28;20012;-82
2023/03/15 12:02:51;;;;;;;4.00;1.95;;;;;;;;;;5059921;28;20040;-86
2023/03/15 12:05:58;;;;;;;3.33;1.60;;;;;;;;;;5076123;28;20036;-88
2023/03/15 12:08:33;;;;;;;3.90;1.63;;;;;;;;;;4981136;28;20042;-87
2023/03/15 12:10:59;;;;;;;4.68;2.53;;;;;;;;;;4997736;28;20038;-85
2023/03/15 12:13:28;;;;;;;3.90;1.70;;;;;;;;;;5046996;28;20484;-86
2023/03/15 12:15:54;;;;;;;5.18;2.10;;;;;;;;;;5056922;28;20020;-86
2023/03/15 12:18:44;;;;;;;2.08;1.50;;;;;;;;;;5075741;28;20043;-87
2023/03/15 12:21:21;;;;;;;3.42;1.70;;;;;;;;;;5057566;28;20032;-86
2023/03/15 12:24:26;;;;;;;3.03;1.58;;;;;;;;;;5066405;28;20066;-85
2023/03/15 12:27:15;;;;;;;3.88;1.67;;;;;;;;;;5074013;28;20048;-86
2023/03/15 12:29:44;;;;;;;4.30;1.70;;;;;;;;;;5056541;28;20382;-85
2023/03/15 12:32:15;;;;;;;3.22;1.40;;;;;;;;;;5074219;28;20106;-86
2023/03/15 12:34:46;;;;;;;3.67;1.80;;;;;;;;;;5074201;28;20090;-86
2023/03/15 12:37:37;;;;;;;3.72;1.70;;;;;;;;;;5074139;28;20082;-87
2023/03/15 12:40:14;;;;;;;4.32;1.73;;;;;;;;;;5074354;28;20041;-87
2023/03/15 12:42:40;;;;;;;3.83;1.48;;;;;;;;;;5056310;28;20054;-87
2023/03/15 12:45:14;;;;;;;2.95;1.20;;;;;;;;;;5073915;28;20039;-86
2023/03/15 12:48:11;;;;;;;2.25;1.00;;;;;;;;;;5073750;28;20090;-86
2023/03/15 12:50:43;;;;;;;3.50;1.30;;;;;;;;;;5055614;28;20032;-87
2023/03/15 12:53:24;;;;;;;3.83;1.42;;;;;;;;;;5055486;28;20036;-86
2023/03/15 12:55:50;;;;;;;2.60;1.13;;;;;;;;;;5056028;28;20097;-86
2023/03/15 12:58:19;;;;;;;3.38;1.13;;;;;;;;;;5074809;28;20036;-91
2023/03/15 13:00:45;;;;;;;3.03;1.30;;;;;;;;;;5075387;28;20111;-89
2023/03/15 13:03:15;;;;;;;4.32;1.35;;;;;;;;;;5075366;28;20048;-89
2023/03/15 13:06:09;;;;;;;3.53;1.20;;;;;;;;;;5076074;28;20079;-89
2023/03/15 13:08:55;;;;;;;2.92;1.17;;;;;;;;;;5073122;28;20040;-88
2023/03/15 13:11:30;;;;;;;3.40;1.23;;;;;;;;;;5052188;28;20036;-87
2023/03/15 13:14:29;;;;;;;3.53;1.30;;;;;;;;;;5084215;28;20048;-87
2023/03/15 13:17:15;;;;;;;3.78;1.20;;;;;;;;;;5074904;28;20499;-85
2023/03/15 13:19:44;;;;;;;3.13;1.30;;;;;;;;;;5057430;28;20028;-83
2023/03/15 13:22:33;;;;;;;3.42;1.40;;;;;;;;;;5057768;28;20086;-82
2023/03/15 13:25:14;;;;;;;2.90;1.00;;;;;;;;;;5077985;28;20044;-84
2023/03/15 13:28:00;;;;;;;2.60;1.00;;;;;;;;;;5076035;28;20054;-85
2023/03/15 13:30:29;;;;;;;2.92;1.13;;;;;;;;;;5039208;28;20045;-84
2023/03/15 13:33:02;;;;;;;2.58;1.10;;;;;;;;;;5056031;28;20024;-86
2023/03/15 13:35:27;;;;;;;2.67;1.00;;;;;;;;;;5074408;28;20032;-87
2023/03/15 13:38:05;;;;;;;4.18;1.20;;;;;;;;;;5073639;28;20043;-85
2023/03/15 13:40:31;;;;;;;1.85;1.30;;;;;;;;;;5056280;28;20058;-84
2023/03/15 13:43:00;;;;;;;3.03;1.20;;;;;;;;;;5055335;28;20028;-86
2023/03/15 13:45:26;;;;;;;2.75;0.90;;;;;;;;;;5073219;28;20033;-84
2023/03/15 13:47:51;;;;;;;1.90;1.10;;;;;;;;;;5073590;28;20035;-83
2023/03/15 13:50:19;;;;;;;4.63;1.30;;;;;;;;;;5073352;28;20040;-84
2023/03/15 13:52:46;;;;;;;2.60;1.20;;;;;;;;;;5054966;28;20189;-83
2023/03/15 13:55:21;;;;;;;2.25;1.00;;;;;;;;;;5072137;28;20121;-84
2023/03/15 13:57:52;;;;;;;1.58;0.93;;;;;;;;;;5073214;28;20047;-86
2023/03/15 14:00:19;;;;;;;2.72;1.02;;;;;;;;;;5055225;28;20111;-84
2023/03/15 14:02:55;;;;;;;1.45;0.90;;;;;;;;;;5073039;28;20400;-85
2023/03/15 14:05:48;;;;;;;2.72;1.30;;;;;;;;;;5072787;28;20033;-85
2023/03/15 14:08:28;;;;;;;2.40;0.88;;;;;;;;;;5036292;28;20135;-83
2023/03/15 14:11:16;;;;;;;1.70;0.73;;;;;;;;;;5055101;28;20036;-84
2023/03/15 14:13:57;;;;;;;2.92;0.80;;;;;;;;;;5072833;28;20036;-82
2023/03/15 14:16:30;;;;;;;3.65;0.95;;;;;;;;;;5054981;28;20032;-83
2023/03/15 14:19:06;;;;;;;;;;;;;;;;;;5072845;28;20040;-83
2023/03/15 14:21:31;;;;;;;1.88;0.80;;;;;;;;;;5072147;28;19919;-84
2023/03/15 14:24:04;;;;;;;3.42;1.00;;;;;;;;;;5054513;28;20037;-82
2023/03/15 14:26:30;;;;;;;4.13;1.10;;;;;;;;;;5063056;28;20033;-85
2023/03/15 14:29:04;;;;;;;1.75;0.90;;;;;;;;;;5083018;28;20052;-86
2023/03/15 14:31:34;;;;;;;1.65;0.95;;;;;;;;;;5073758;28;20052;-85
2023/03/15 14:34:35;;;;;;;3.03;1.02;;;;;;;;;;5055095;28;20044;-85
2023/03/15 14:37:06;;;;;;;1.00;0.73;;;;;;;;;;5059692;28;20044;-84
2023/03/15 14:39:34;;;;;;;1.98;0.90;;;;;;;;;;5076991;28;20064;-84
2023/03/15 14:42:00;;;;;;;1.65;0.80;;;;;;;;;;5077158;28;20041;-84
2023/03/15 14:44:25;;;;;;;3.55;0.88;;;;;;;;;;5077059;28;20051;-84
2023/03/15 14:46:51;;;;;;;2.83;0.85;;;;;;;;;;5077482;28;20119;-87
2023/03/15 14:49:24;;;;;;;3.92;0.75;;;;;;;;;;5059534;28;20056;-87
2023/03/15 14:52:00;;;;;;;0.85;0.50;;;;;;;;;;5077146;28;20037;-86
2023/03/15 14:54:28;;;;;;;0.95;0.70;;;;;;;;;;5058298;28;20496;-87
2023/03/15 14:56:53;;;;;;;0.90;0.60;;;;;;;;;;5058497;28;20111;-87
2023/03/15 14:59:19;;;;;;;1.45;0.60;;;;;;;;;;5077115;28;20036;-87
2023/03/15 15:01:49;;;;;;;3.83;0.60;;;;;;;;;;5061457;28;20178;-89
2023/03/15 15:04:16;;;;;;;1.63;0.80;;;;;;;;;;5079817;28;20111;-89
2023/03/15 15:06:50;;;;;;;2.40;0.88;;;;;;;;;;5076384;28;20039;-89
2023/03/15 15:09:23;;;;;;;4.05;0.85;;;;;;;;;;5076036;28;20055;-86
2023/03/15 15:11:50;;;;;;;1.92;0.70;;;;;;;;;;5075528;28;20028;-89
2023/03/15 15:14:16;;;;;;;2.42;0.70;;;;;;;;;;5075729;28;20078;-87
2023/03/15 15:16:42;;;;;;;2.75;0.70;;;;;;;;;;5075868;28;20028;-87
2023/03/15 15:19:08;;;;;;;2.50;0.80;;;;;;;;;;5061477;28;20021;-87
2023/03/15 15:21:34;;;;;;;1.38;0.60;;;;;;;;;;5055869;28;20469;-87
2023/03/15 15:24:10;;;;;;;4.07;0.80;;;;;;;;;;5056640;28;20029;-86
2023/03/15 15:26:35;;;;;;;1.85;0.70;;;;;;;;;;5038934;28;20257;-84
2023/03/15 15:29:01;;;;;;;0.73;0.50;;;;;;;;;;5057562;28;20041;-84
2023/03/15 15:31:28;;;;;;;1.48;0.70;;;;;;;;;;5063640;28;20033;-85
2023/03/15 15:33:55;;;;;;;3.63;0.80;;;;;;;;;;5056426;28;20405;-85
2023/03/15 15:36:44;;;;;;;1.42;0.80;;;;;;;;;;5054655;28;20033;-84
2023/03/15 15:39:22;;;;;;;2.25;0.80;;;;;;;;;;5052396;28;20063;-85
2023/03/15 15:41:48;;;;;;;2.78;1.13;;;;;;;;;;5057952;28;20036;-87
2023/03/15 15:44:19;;;;;;;5.97;2.40;;;;;;;;;;5057236;28;20454;-85
2023/03/15 15:46:44;;;;;;;3.17;1.30;;;;;;;;;;5039042;28;20485;-86